createdAt,value
2018-12-09T00:00:01.799Z,98571.23
2018-12-09T00:02:29.328Z,98591.24
2018-12-09T00:04:56.826Z,98620.25
2018-12-09T00:07:24.232Z,98590.97
2018-12-09T00:09:51.755Z,98587.02
2018-12-09T00:12:19.409Z,98580.09
2018-12-09T00:14:46.880Z,98592.42
2018-12-09T00:17:14.293Z,98584.42
2018-12-09T00:19:41.699Z,98580.81
2018-12-09T00:22:09.133Z,98588.19
2018-12-09T00:24:36.804Z,98584.42
2018-12-09T00:27:04.363Z,98577.56
2018-12-09T00:29:31.818Z,98577.94
2018-12-09T00:31:59.270Z,98575.65
2018-12-09T00:34:26.683Z,98570.88
2018-12-09T00:36:54.094Z,98579.88
2018-12-09T00:39:21.526Z,98581.38
2018-12-09T00:41:48.939Z,98578.19
2018-12-09T00:44:16.348Z,98571.42
2018-12-09T00:46:43.765Z,98582.42
2018-12-09T00:49:11.270Z,98571.24
2018-12-09T00:51:38.714Z,98586.66
2018-12-09T00:54:06.187Z,98599.20
2018-12-09T00:56:33.637Z,98583.48
2018-12-09T00:59:01.091Z,98592.55
2018-12-09T01:01:28.545Z,98590.42
2018-12-09T01:03:56.119Z,98594.79
2018-12-09T01:06:23.564Z,98602.88
2018-12-09T01:08:51.031Z,98611.47
2018-12-09T01:11:18.488Z,98612.66
2018-12-09T01:13:45.938Z,98604.11
2018-12-09T01:16:13.357Z,98612.52
2018-12-09T01:18:40.841Z,98633.09
2018-12-09T01:21:08.404Z,98625.47
2018-12-09T01:23:35.969Z,98634.59
2018-12-09T01:26:03.425Z,98624.98
2018-12-09T01:28:30.894Z,98627.91
2018-12-09T01:30:58.432Z,98642.66
2018-12-09T01:33:25.875Z,98632.77
2018-12-09T01:35:53.382Z,98645.72
2018-12-09T01:38:20.819Z,98651.20
2018-12-09T01:40:54.416Z,98646.22
2018-12-09T01:43:21.878Z,98642.72
2018-12-09T01:45:49.293Z,98644.91
2018-12-09T01:48:17.099Z,98636.96
2018-12-09T01:50:44.517Z,98622.83
2018-12-09T01:53:23.967Z,98651.09
2018-12-09T01:55:51.455Z,98644.16
2018-12-09T01:58:18.997Z,98634.35
2018-12-09T02:00:46.579Z,98656.95
2018-12-09T02:03:14.294Z,98658.27
2018-12-09T02:05:41.692Z,98670.20
2018-12-09T02:08:09.157Z,98676.56
2018-12-09T02:10:36.590Z,98668.25
2018-12-09T02:13:04.068Z,98668.67
2018-12-09T02:15:31.621Z,98672.06
2018-12-09T02:17:59.169Z,98672.67
2018-12-09T02:20:26.924Z,98682.06
2018-12-09T02:22:54.441Z,98682.80
2018-12-09T02:25:21.867Z,98667.86
2018-12-09T02:27:49.270Z,98673.94
2018-12-09T02:30:16.693Z,98667.25
2018-12-09T02:32:44.113Z,98679.36
2018-12-09T02:35:11.691Z,98667.93
2018-12-09T02:37:39.443Z,98674.36
2018-12-09T02:40:07.005Z,98674.13
2018-12-09T02:42:34.467Z,98669.77
2018-12-09T02:45:01.927Z,98690.75
2018-12-09T02:47:29.495Z,98671.70
2018-12-09T02:49:57.333Z,98674.94
2018-12-09T02:52:24.762Z,98664.94
2018-12-09T02:54:52.236Z,98660.00
2018-12-09T02:57:19.641Z,98662.02
2018-12-09T02:59:47.070Z,98663.63
2018-12-09T03:02:14.533Z,98676.44
2018-12-09T03:04:41.936Z,98672.06
2018-12-09T03:07:09.371Z,98673.89
2018-12-09T03:09:36.810Z,98667.19
2018-12-09T03:12:04.374Z,98667.50
2018-12-09T03:14:31.916Z,98664.06
2018-12-09T03:16:59.385Z,98652.94
2018-12-09T03:19:27.020Z,98664.52
2018-12-09T03:21:54.491Z,98662.45
2018-12-09T03:24:21.923Z,98662.88
2018-12-09T03:26:49.353Z,98664.63
2018-12-09T03:29:16.848Z,98675.98
2018-12-09T03:31:44.341Z,98678.31
2018-12-09T03:34:11.770Z,98676.49
2018-12-09T03:36:39.236Z,98674.09
2018-12-09T03:39:06.795Z,98679.34
2018-12-09T03:41:34.345Z,98677.98
2018-12-09T03:44:01.780Z,98676.40
2018-12-09T03:46:29.221Z,98685.16
2018-12-09T03:48:56.813Z,98671.52
2018-12-09T03:51:24.321Z,98678.30
2018-12-09T03:53:51.751Z,98686.17
2018-12-09T03:56:19.306Z,98687.23
2018-12-09T03:58:46.748Z,98687.97
2018-12-09T04:01:14.316Z,98688.77
2018-12-09T04:03:41.866Z,98684.20
2018-12-09T04:06:09.284Z,98687.33
2018-12-09T04:08:36.823Z,98694.23
2018-12-09T04:11:04.372Z,98693.97
2018-12-09T04:13:31.803Z,98698.28
2018-12-09T04:15:59.209Z,98703.80
2018-12-09T04:18:26.727Z,98697.16
2018-12-09T04:20:54.165Z,98695.20
2018-12-09T04:23:21.639Z,98691.17
2018-12-09T04:25:49.114Z,98692.58
2018-12-09T04:28:16.542Z,98700.45
2018-12-09T04:30:44.009Z,98699.48
2018-12-09T04:33:11.425Z,98700.16
2018-12-09T04:35:38.931Z,98704.09
2018-12-09T04:38:06.370Z,98702.78
2018-12-09T04:40:33.800Z,98702.86
2018-12-09T04:43:01.229Z,98711.28
2018-12-09T04:45:28.749Z,98705.17
2018-12-09T04:47:56.195Z,98703.25
2018-12-09T04:50:23.779Z,98697.06
2018-12-09T04:52:51.228Z,98729.94
2018-12-09T04:55:18.682Z,98730.92
2018-12-09T04:57:46.104Z,98734.92
2018-12-09T05:00:25.186Z,98728.87
2018-12-09T05:02:52.927Z,98736.80
2018-12-09T05:05:20.476Z,98735.16
2018-12-09T05:07:47.921Z,98747.30
2018-12-09T05:10:15.327Z,98744.24
2018-12-09T05:12:42.841Z,98750.30
2018-12-09T05:15:10.657Z,98755.61
2018-12-09T05:17:38.183Z,98750.73
2018-12-09T05:20:05.717Z,98757.29
2018-12-09T05:22:33.289Z,98769.41
2018-12-09T05:25:00.863Z,98771.59
2018-12-09T05:27:28.728Z,98775.53
2018-12-09T05:29:56.137Z,98777.52
2018-12-09T05:32:23.640Z,98781.52
2018-12-09T05:34:51.198Z,98774.52
2018-12-09T05:37:18.745Z,98776.63
2018-12-09T05:39:46.628Z,98774.78
2018-12-09T05:42:14.070Z,98772.32
2018-12-09T05:44:41.473Z,98777.20
2018-12-09T05:47:08.983Z,98779.63
2018-12-09T05:49:36.456Z,98792.20
2018-12-09T05:52:03.865Z,98791.88
2018-12-09T05:54:31.379Z,98791.70
2018-12-09T05:56:58.827Z,98790.20
2018-12-09T05:59:26.284Z,98785.28
2018-12-09T06:02:01.550Z,98789.72
2018-12-09T06:04:29.295Z,98804.59
2018-12-09T06:06:56.731Z,98794.27
2018-12-09T06:09:24.157Z,98802.45
2018-12-09T06:11:51.655Z,98797.70
2018-12-09T06:14:19.278Z,98803.65
2018-12-09T06:16:47.194Z,98805.19
2018-12-09T06:19:14.751Z,98803.52
2018-12-09T06:21:42.165Z,98812.70
2018-12-09T06:24:09.645Z,98812.94
2018-12-09T06:26:37.060Z,98814.59
2018-12-09T06:29:04.566Z,98809.14
2018-12-09T06:31:32.125Z,98810.15
2018-12-09T06:33:59.525Z,98811.52
2018-12-09T06:36:27.041Z,98802.95
2018-12-09T06:38:54.484Z,98821.69
2018-12-09T06:41:22.063Z,98818.08
2018-12-09T06:43:49.513Z,98815.83
2018-12-09T06:46:16.991Z,98814.17
2018-12-09T06:48:44.407Z,98829.00
2018-12-09T06:51:11.891Z,98829.23
2018-12-09T06:53:39.340Z,98826.91
2018-12-09T06:56:06.807Z,98824.42
2018-12-09T06:58:34.253Z,98828.61
2018-12-09T07:01:01.675Z,98827.86
2018-12-09T07:03:29.260Z,98834.41
2018-12-09T07:05:56.748Z,98829.47
2018-12-09T07:08:24.289Z,98837.68
2018-12-09T07:10:51.718Z,98844.24
2018-12-09T07:13:19.198Z,98849.30
2018-12-09T07:15:46.671Z,98850.91
2018-12-09T07:18:14.232Z,98856.72
2018-12-09T07:20:41.671Z,98861.16
2018-12-09T07:23:09.139Z,98869.11
2018-12-09T07:25:36.607Z,98868.05
2018-12-09T07:28:04.057Z,98874.58
2018-12-09T07:30:31.461Z,98881.31
2018-12-09T07:32:58.882Z,98879.86
2018-12-09T07:35:26.821Z,98878.55
2018-12-09T07:37:54.282Z,98881.87
2018-12-09T07:40:21.741Z,98897.16
2018-12-09T07:42:49.190Z,98901.24
2018-12-09T07:45:16.609Z,98906.16
2018-12-09T07:47:44.031Z,98903.39
2018-12-09T07:50:11.472Z,98911.14
2018-12-09T07:52:38.925Z,98908.92
2018-12-09T07:55:06.380Z,98911.68
2018-12-09T07:57:33.822Z,98922.69
2018-12-09T08:00:01.309Z,98939.55
2018-12-09T08:02:28.746Z,98935.16
2018-12-09T08:04:56.245Z,98925.47
2018-12-09T08:07:23.649Z,98952.36
2018-12-09T08:09:51.117Z,98953.16
2018-12-09T08:12:18.573Z,98959.59
2018-12-09T08:14:46.019Z,98976.19
2018-12-09T08:17:13.499Z,98969.32
2018-12-09T08:19:40.922Z,98961.76
2018-12-09T08:22:08.341Z,98973.56
2018-12-09T08:24:35.784Z,98981.63
2018-12-09T08:27:03.218Z,98976.55
2018-12-09T08:29:30.639Z,98967.36
2018-12-09T08:31:58.142Z,98987.19
2018-12-09T08:34:25.585Z,98982.66
2018-12-09T08:36:53.159Z,99001.83
2018-12-09T08:39:20.589Z,99019.53
2018-12-09T08:41:47.996Z,99012.83
2018-12-09T08:44:15.418Z,99045.47
2018-12-09T08:46:42.892Z,99086.49
2018-12-09T08:49:10.330Z,99083.50
2018-12-09T08:51:37.781Z,99090.95
2018-12-09T08:54:05.262Z,99074.13
2018-12-09T08:56:32.703Z,99090.39
2018-12-09T08:59:00.171Z,99082.21
2018-12-09T09:01:27.590Z,99095.47
2018-12-09T09:03:55.001Z,99086.44
2018-12-09T09:06:22.436Z,99088.08
2018-12-09T09:08:49.888Z,99099.02
2018-12-09T09:11:17.301Z,99103.91
2018-12-09T09:13:44.811Z,99117.67
2018-12-09T09:16:12.225Z,99116.87
2018-12-09T09:18:39.813Z,99124.73
2018-12-09T09:21:07.280Z,99125.55
2018-12-09T09:23:34.700Z,99117.69
2018-12-09T09:26:02.123Z,99124.24
2018-12-09T09:28:29.533Z,99126.18
2018-12-09T09:30:56.990Z,99121.44
2018-12-09T09:33:24.452Z,99122.25
2018-12-09T09:35:51.861Z,99119.30
2018-12-09T09:38:19.299Z,99125.19
2018-12-09T09:40:46.745Z,99129.44
2018-12-09T09:43:14.281Z,99138.94
2018-12-09T09:45:41.932Z,99149.28
2018-12-09T09:48:09.365Z,99154.37
2018-12-09T09:50:36.805Z,99143.27
2018-12-09T09:53:04.324Z,99145.21
2018-12-09T09:55:31.831Z,99148.50
2018-12-09T09:57:59.348Z,99147.04
2018-12-09T10:00:26.763Z,99156.66
2018-12-09T10:02:54.241Z,99166.14
2018-12-09T10:05:21.667Z,99168.40
2018-12-09T10:07:49.293Z,99172.30
2018-12-09T10:10:16.698Z,99167.50
2018-12-09T10:12:44.195Z,99173.73
2018-12-09T10:15:11.858Z,99180.63
2018-12-09T10:17:39.288Z,99169.17
2018-12-09T10:20:07.168Z,99183.09
2018-12-09T10:22:34.574Z,99188.98
2018-12-09T10:25:02.081Z,99186.70
2018-12-09T10:27:29.506Z,99187.39
2018-12-09T10:29:56.980Z,99193.33
2018-12-09T10:32:24.421Z,99191.70
2018-12-09T10:34:51.826Z,99191.72
2018-12-09T10:37:19.258Z,99180.42
2018-12-09T10:39:46.726Z,99176.00
2018-12-09T10:42:14.147Z,99172.23
2018-12-09T10:44:41.575Z,99169.88
2018-12-09T10:47:08.992Z,99169.09
2018-12-09T10:49:36.537Z,99178.92
2018-12-09T10:52:04.015Z,99179.40
2018-12-09T10:54:31.428Z,99186.91
2018-12-09T10:56:59.018Z,99194.94
2018-12-09T10:59:26.422Z,99189.55
2018-12-09T11:01:55.785Z,99192.31
2018-12-09T11:04:23.220Z,99195.55
2018-12-09T11:06:50.685Z,99194.41
2018-12-09T11:09:18.157Z,99200.13
2018-12-09T11:11:45.607Z,99192.64
2018-12-09T11:14:13.060Z,99195.27
2018-12-09T11:16:40.492Z,99194.43
2018-12-09T11:19:07.908Z,99196.37
2018-12-09T11:21:35.442Z,99200.46
2018-12-09T11:24:02.850Z,99202.43
2018-12-09T11:26:30.438Z,99205.05
2018-12-09T11:28:57.898Z,99206.36
2018-12-09T11:31:25.353Z,99212.08
2018-12-09T11:33:52.790Z,99210.75
2018-12-09T11:36:20.200Z,99216.63
2018-12-09T11:38:47.626Z,99222.64
2018-12-09T11:41:15.082Z,99222.80
2018-12-09T11:43:42.552Z,99226.23
2018-12-09T11:46:09.984Z,99231.45
2018-12-09T11:48:37.450Z,99234.23
2018-12-09T11:51:04.887Z,99236.52
2018-12-09T11:53:32.370Z,99233.73
2018-12-09T11:55:59.827Z,99244.70
2018-12-09T11:58:27.248Z,99246.37
2018-12-09T12:00:54.733Z,99240.99
2018-12-09T12:03:22.204Z,99251.30
2018-12-09T12:05:49.780Z,99253.61
2018-12-09T12:08:17.305Z,99260.97
2018-12-09T12:10:44.791Z,99267.48
2018-12-09T12:13:12.194Z,99267.80
2018-12-09T12:15:39.613Z,99274.52
2018-12-09T12:18:07.102Z,99283.17
2018-12-09T12:20:34.713Z,99279.24
2018-12-09T12:23:02.153Z,99277.62
2018-12-09T12:25:29.642Z,99275.96
2018-12-09T12:27:57.208Z,99285.19
2018-12-09T12:30:26.181Z,99284.03
2018-12-09T12:32:53.862Z,99284.19
2018-12-09T12:35:21.308Z,99285.98
2018-12-09T12:37:48.741Z,99291.84
2018-12-09T12:40:16.147Z,99291.19
2018-12-09T12:42:43.679Z,99310.66
2018-12-09T12:45:11.133Z,99313.91
2018-12-09T12:47:38.538Z,99308.66
2018-12-09T12:50:06.046Z,99315.09
2018-12-09T12:52:33.484Z,99317.01
2018-12-09T12:55:00.940Z,99327.30
2018-12-09T12:57:28.415Z,99335.11
2018-12-09T12:59:56.064Z,99332.33
2018-12-09T13:02:23.524Z,99326.90
2018-12-09T13:04:50.943Z,99338.05
2018-12-09T13:07:18.447Z,99340.99
2018-12-09T13:09:45.898Z,99354.41
2018-12-09T13:12:13.364Z,99360.63
2018-12-09T13:14:40.823Z,99363.22
2018-12-09T13:17:08.275Z,99372.56
2018-12-09T13:19:35.690Z,99377.81
2018-12-09T13:22:03.205Z,99370.28
2018-12-09T13:24:30.650Z,99371.44
2018-12-09T13:26:58.057Z,99386.88
2018-12-09T13:29:25.567Z,99387.20
2018-12-09T13:31:52.993Z,99393.08
2018-12-09T13:34:20.461Z,99394.89
2018-12-09T13:36:48.024Z,99400.14
2018-12-09T13:39:15.438Z,99397.04
2018-12-09T13:41:42.926Z,99402.98
2018-12-09T13:44:10.488Z,99409.53
2018-12-09T13:46:37.956Z,99408.72
2018-12-09T13:49:05.401Z,99417.91
2018-12-09T13:51:32.821Z,99421.17
2018-12-09T13:54:00.339Z,99427.39
2018-12-09T13:56:27.778Z,99434.77
2018-12-09T13:58:55.349Z,99437.87
2018-12-09T14:01:22.789Z,99452.13
2018-12-09T14:03:50.203Z,99450.80
2018-12-09T14:06:17.716Z,99460.86
2018-12-09T14:08:45.139Z,99464.68
2018-12-09T14:11:12.642Z,99476.97
2018-12-09T14:13:40.082Z,99479.27
2018-12-09T14:16:07.611Z,99487.96
2018-12-09T14:18:35.151Z,99491.59
2018-12-09T14:21:02.616Z,99498.97
2018-12-09T14:23:30.114Z,99505.20
2018-12-09T14:25:57.784Z,99513.41
2018-12-09T14:28:25.196Z,99519.81
2018-12-09T14:30:52.661Z,99517.55
2018-12-09T14:33:20.256Z,99521.30
2018-12-09T14:35:47.715Z,99525.08
2018-12-09T14:38:15.177Z,99532.80
2018-12-09T14:40:42.636Z,99545.11
2018-12-09T14:43:10.159Z,99556.25
2018-12-09T14:45:37.634Z,99560.02
2018-12-09T14:48:05.112Z,99563.33
2018-12-09T14:50:32.520Z,99570.87
2018-12-09T14:52:59.998Z,99583.36
2018-12-09T14:55:27.448Z,99587.77
2018-12-09T14:57:55.032Z,99597.12
2018-12-09T15:00:22.587Z,99597.78
2018-12-09T15:02:50.015Z,99607.29
2018-12-09T15:05:17.507Z,99620.91
2018-12-09T15:07:44.945Z,99622.41
2018-12-09T15:10:12.567Z,99618.11
2018-12-09T15:12:40.000Z,99627.48
2018-12-09T15:15:07.530Z,99630.28
2018-12-09T15:17:34.994Z,99637.81
2018-12-09T15:20:02.483Z,99646.83
2018-12-09T15:22:30.012Z,99659.31
2018-12-09T15:24:57.568Z,99662.25
2018-12-09T15:27:24.974Z,99666.52
2018-12-09T15:29:52.464Z,99675.70
2018-12-09T15:32:19.879Z,99674.89
2018-12-09T15:34:47.294Z,99683.27
2018-12-09T15:37:14.745Z,99685.08
2018-12-09T15:39:42.172Z,99691.78
2018-12-09T15:42:09.608Z,99696.54
2018-12-09T15:44:37.012Z,99701.30
2018-12-09T15:47:04.483Z,99709.66
2018-12-09T15:49:31.937Z,99722.29
2018-12-09T15:51:59.400Z,99720.98
2018-12-09T15:54:27.188Z,99729.81
2018-12-09T15:56:54.605Z,99733.59
2018-12-09T15:59:22.077Z,99746.55
2018-12-09T16:01:49.499Z,99755.09
2018-12-09T16:04:16.968Z,99761.97
2018-12-09T16:06:44.506Z,99760.84
2018-12-09T16:09:12.014Z,99774.14
2018-12-09T16:11:39.451Z,99788.22
2018-12-09T16:14:06.919Z,99784.13
2018-12-09T16:16:34.359Z,99791.16
2018-12-09T16:19:01.788Z,99793.45
2018-12-09T16:21:29.199Z,99805.76
2018-12-09T16:23:56.639Z,99812.78
2018-12-09T16:26:24.087Z,99817.70
2018-12-09T16:28:51.729Z,99828.06
2018-12-09T16:31:19.243Z,99820.00
2018-12-09T16:33:46.759Z,99831.09
2018-12-09T16:36:14.201Z,99831.72
2018-12-09T16:38:41.686Z,99848.92
2018-12-09T16:41:09.135Z,99858.88
2018-12-09T16:43:36.557Z,99860.69
2018-12-09T16:46:04.025Z,99860.67
2018-12-09T16:48:31.538Z,99859.03
2018-12-09T16:50:58.933Z,99870.97
2018-12-09T16:53:26.431Z,99878.84
2018-12-09T16:55:53.884Z,99887.37
2018-12-09T16:58:21.340Z,99899.48
2018-12-09T17:00:48.746Z,99903.22
2018-12-09T17:03:16.263Z,99911.84
2018-12-09T17:05:43.781Z,99923.13
2018-12-09T17:08:11.270Z,99924.73
2018-12-09T17:10:38.696Z,99939.78
2018-12-09T17:13:06.199Z,99946.14
2018-12-09T17:15:33.646Z,99951.39
2018-12-09T17:18:01.109Z,99965.38
2018-12-09T17:20:28.509Z,99978.18
2018-12-09T17:22:55.934Z,99992.13
2018-12-09T17:25:23.359Z,99991.67
2018-12-09T17:27:50.819Z,100000.19
2018-12-09T17:30:18.282Z,99992.95
2018-12-09T17:32:45.689Z,99996.59
2018-12-09T17:35:13.171Z,99999.53
2018-12-09T17:37:40.654Z,100003.77
2018-12-09T17:40:08.201Z,100005.44
2018-12-09T17:42:35.631Z,100018.25
2018-12-09T17:45:03.102Z,100024.48
2018-12-09T17:47:30.589Z,100038.57
2018-12-09T17:49:58.053Z,100051.16
2018-12-09T17:52:25.507Z,100078.72
2018-12-09T17:54:52.968Z,100079.08
2018-12-09T17:57:20.416Z,100088.59
2018-12-09T17:59:47.976Z,100086.95
2018-12-09T18:02:15.400Z,100086.46
2018-12-09T18:04:42.944Z,100090.23
2018-12-09T18:07:10.380Z,100094.16
2018-12-09T18:09:37.900Z,100101.70
2018-12-09T18:12:05.585Z,100106.84
2018-12-09T18:14:33.017Z,100116.48
2018-12-09T18:17:00.483Z,100117.46
2018-12-09T18:19:27.937Z,100132.21
2018-12-09T18:21:55.368Z,100132.91
2018-12-09T18:24:22.832Z,100146.64
2018-12-09T18:26:50.259Z,100148.23
2018-12-09T18:29:17.758Z,100154.27
2018-12-09T18:31:45.245Z,100158.23
2018-12-09T18:34:12.781Z,100163.64
2018-12-09T18:36:40.228Z,100165.85
2018-12-09T18:39:07.699Z,100178.30
2018-12-09T18:41:35.132Z,100184.16
2018-12-09T18:44:02.620Z,100190.09
2018-12-09T18:46:30.172Z,100210.36
2018-12-09T18:48:57.639Z,100218.18
2018-12-09T18:51:25.078Z,100218.46
2018-12-09T18:53:52.546Z,100225.58
2018-12-09T18:56:20.012Z,100228.14
2018-12-09T18:58:47.564Z,100234.54
2018-12-09T19:01:15.039Z,100243.09
2018-12-09T19:03:42.564Z,100254.40
2018-12-09T19:06:10.031Z,100258.00
2018-12-09T19:08:37.590Z,100264.34
2018-12-09T19:11:05.045Z,100273.02
2018-12-09T19:13:32.508Z,100277.00
2018-12-09T19:15:59.929Z,100287.92
2018-12-09T19:18:27.401Z,100292.34
2018-12-09T19:20:54.831Z,100301.67
2018-12-09T19:23:22.319Z,100308.28
2018-12-09T19:25:49.781Z,100312.98
2018-12-09T19:28:17.221Z,100319.64
2018-12-09T19:30:48.180Z,100321.66
2018-12-09T19:33:14.087Z,100333.44
2018-12-09T19:35:41.557Z,100345.99
2018-12-09T19:38:09.014Z,100361.28
2018-12-09T19:40:36.446Z,100361.55
2018-12-09T19:43:03.948Z,100345.23
2018-12-09T19:45:31.377Z,100355.37
2018-12-09T19:47:58.855Z,100362.53
2018-12-09T19:50:26.279Z,100356.31
2018-12-09T19:52:53.706Z,100374.52
2018-12-09T19:55:21.210Z,100370.52
2018-12-09T19:57:48.677Z,100374.37
2018-12-09T20:00:16.109Z,100383.24
2018-12-09T20:02:43.602Z,100383.89
2018-12-09T20:05:11.079Z,100387.00
2018-12-09T20:07:38.621Z,100395.48
2018-12-09T20:10:06.681Z,100397.39
2018-12-09T20:12:34.140Z,100412.27
2018-12-09T20:15:01.607Z,100416.95
2018-12-09T20:17:29.054Z,100409.84
2018-12-09T20:19:56.517Z,100415.45
2018-12-09T20:22:23.967Z,100415.75
2018-12-09T20:24:51.402Z,100428.69
2018-12-09T20:27:18.922Z,100427.60
2018-12-09T20:29:46.412Z,100433.44
2018-12-09T20:32:14.097Z,100438.07
2018-12-09T20:34:41.518Z,100443.53
2018-12-09T20:37:09.029Z,100443.16
2018-12-09T20:39:36.498Z,100451.90
2018-12-09T20:42:03.922Z,100455.12
2018-12-09T20:44:31.355Z,100459.19
2018-12-09T20:46:58.779Z,100460.53
2018-12-09T20:49:26.207Z,100472.30
2018-12-09T20:51:53.666Z,100464.45
2018-12-09T20:54:21.310Z,100466.73
2018-12-09T20:56:48.780Z,100468.52
2018-12-09T20:59:16.240Z,100466.76
2018-12-09T21:01:43.671Z,100477.70
2018-12-09T21:04:11.140Z,100471.65
2018-12-09T21:06:38.597Z,100479.50
2018-12-09T21:09:06.333Z,100480.66
2018-12-09T21:11:33.752Z,100477.97
2018-12-09T21:14:01.280Z,100474.55
2018-12-09T21:16:28.737Z,100481.43
2018-12-09T21:18:56.195Z,100485.58
2018-12-09T21:21:23.647Z,100483.14
2018-12-09T21:23:51.109Z,100488.84
2018-12-09T21:26:18.544Z,100494.91
2018-12-09T21:28:46.012Z,100505.63
2018-12-09T21:31:13.421Z,100512.88
2018-12-09T21:33:40.946Z,100523.67
2018-12-09T21:36:08.379Z,100522.97
2018-12-09T21:38:35.836Z,100517.05
2018-12-09T21:41:03.311Z,100516.55
2018-12-09T21:43:30.728Z,100530.14
2018-12-09T21:45:58.221Z,100538.20
2018-12-09T21:48:25.672Z,100540.92
2018-12-09T21:50:53.120Z,100546.78
2018-12-09T21:53:21.423Z,100553.43
2018-12-09T21:55:48.941Z,100548.94
2018-12-09T21:58:16.396Z,100552.75
2018-12-09T22:00:43.870Z,100564.47
2018-12-09T22:03:11.344Z,100565.16
2018-12-09T22:05:38.766Z,100576.68
2018-12-09T22:08:06.263Z,100572.47
2018-12-09T22:10:33.683Z,100569.40
2018-12-09T22:13:01.165Z,100576.54
2018-12-09T22:15:28.603Z,100587.72
2018-12-09T22:17:56.072Z,100592.52
2018-12-09T22:20:23.509Z,100598.62
2018-12-09T22:22:50.933Z,100594.13
2018-12-09T22:25:18.420Z,100601.40
2018-12-09T22:27:46.008Z,100604.59
2018-12-09T22:30:13.469Z,100605.89
2018-12-09T22:32:40.931Z,100599.61
2018-12-09T22:35:08.349Z,100608.67
2018-12-09T22:37:35.776Z,100617.34
2018-12-09T22:40:03.519Z,100623.16
2018-12-09T22:42:31.048Z,100627.71
2018-12-09T22:44:58.489Z,100631.88
2018-12-09T22:47:25.906Z,100631.49
2018-12-09T22:49:53.372Z,100637.94
2018-12-09T22:52:20.872Z,100641.61
2018-12-09T22:54:48.360Z,100639.82
2018-12-09T22:57:15.788Z,100651.45
2018-12-09T22:59:43.259Z,100660.41
2018-12-09T23:02:16.326Z,100665.51
2018-12-09T23:04:43.752Z,100666.72
2018-12-09T23:07:16.854Z,100675.05
2018-12-09T23:09:44.367Z,100682.79
2018-12-09T23:12:11.796Z,100686.58
2018-12-09T23:14:39.230Z,100689.33
2018-12-09T23:17:06.721Z,100689.23
2018-12-09T23:19:34.159Z,100692.91
2018-12-09T23:22:01.570Z,100696.83
2018-12-09T23:24:29.100Z,100696.48
2018-12-09T23:26:56.537Z,100702.06
2018-12-09T23:29:24.068Z,100704.47
2018-12-09T23:31:51.557Z,100707.42
2018-12-09T23:34:19.020Z,100713.96
2018-12-09T23:36:46.466Z,100718.36
2018-12-09T23:39:13.895Z,100714.34
2018-12-09T23:41:41.394Z,100719.56
2018-12-09T23:44:08.815Z,100727.27
2018-12-09T23:46:36.308Z,100732.16
2018-12-09T23:49:03.865Z,100728.09
2018-12-09T23:51:31.425Z,100740.24
2018-12-09T23:53:59.077Z,100740.94
2018-12-09T23:56:26.551Z,100748.43
2018-12-09T23:58:53.988Z,100756.75
